Time;durP1;ratioP1;P1;durP2;ratioP2;P2;SDS_P1;SDS_P2;PMS_P1;PMS_P2;Temp;Humidity;BMP_temperature;BMP_pressure;BME280_temperature;BME280_humidity;BME280_pressure;Samples;Min_cycle;Max_cycle;Signal;HPM_P1;HPM_P2
2021/04/08 00:01:20;;;;;;;12.77;7.65;;;;;;;0.76;77.27;99222.03;5096210;28;20058;-54
2021/04/08 00:03:46;;;;;;;14.27;7.43;;;;;;;0.81;77.55;99216.03;5096129;28;20413;-54
2021/04/08 00:06:12;;;;;;;15.65;8.73;;;;;;;0.80;77.74;99214.31;5095291;28;20048;-54
2021/04/08 00:08:38;;;;;;;14.13;8.13;;;;;;;0.80;78.11;99219.47;5095231;28;20065;-54
2021/04/08 00:11:04;;;;;;;13.77;7.13;;;;;;;0.80;78.59;99211.72;5095748;28;20157;-54
2021/04/08 00:13:30;;;;;;;16.20;7.40;;;;;;;0.90;78.35;99210.06;5095878;28;20106;-54
2021/04/08 00:15:55;;;;;;;14.45;7.22;;;;;;;0.88;78.56;99214.38;5094932;28;20048;-54
2021/04/08 00:18:21;;;;;;;15.43;8.38;;;;;;;0.85;79.05;99217.78;5095187;28;20043;-55
2021/04/08 00:20:47;;;;;;;13.60;7.82;;;;;;;0.87;79.09;99215.19;5096057;28;20044;-55
2021/04/08 00:23:13;;;;;;;15.90;7.85;;;;;;;0.89;79.04;99214.34;5095197;28;20121;-55
2021/04/08 00:25:38;;;;;;;15.32;7.70;;;;;;;0.96;78.83;99216.97;5095136;28;20426;-54
2021/04/08 00:28:04;;;;;;;16.52;7.97;;;;;;;1.00;78.51;99216.97;5095714;28;20070;-55
2021/04/08 00:30:30;;;;;;;16.13;8.10;;;;;;;0.97;78.51;99222.13;5095095;28;20052;-55
2021/04/08 00:32:56;;;;;;;13.00;8.05;;;;;;;0.89;79.19;99226.41;5096878;28;20449;-55
2021/04/08 00:35:22;;;;;;;15.95;9.00;;;;;;;0.96;79.06;99219.56;5099574;28;20031;-55
2021/04/08 00:37:48;;;;;;;16.02;8.65;;;;;;;0.95;79.28;99223.84;5099773;28;20040;-55
2021/04/08 00:40:14;;;;;;;15.30;8.55;;;;;;;0.96;79.31;99230.72;5098881;28;20062;-55
2021/04/08 00:42:40;;;;;;;16.98;8.90;;;;;;;0.98;79.15;99226.44;5099774;28;20048;-55
2021/04/08 00:45:06;;;;;;;17.80;7.85;;;;;;;1.00;79.29;99229.88;5099322;28;20063;-55
2021/04/08 00:47:32;;;;;;;17.58;10.15;;;;;;;1.08;79.11;99220.47;5098281;28;20412;-55
2021/04/08 00:49:58;;;;;;;18.83;11.27;;;;;;;1.14;78.95;99224.78;5099559;28;20064;-55
2021/04/08 00:52:25;;;;;;;18.17;10.55;;;;;;;1.05;79.44;99229.91;5098331;28;20052;-55
2021/04/08 00:54:50;;;;;;;14.93;9.55;;;;;;;1.06;79.52;99229.03;5081762;28;20135;-55
2021/04/08 00:57:16;;;;;;;17.98;10.90;;;;;;;1.08;79.64;99229.94;5081470;28;20044;-55
2021/04/08 00:59:42;;;;;;;22.65;12.82;;;;;;;1.08;79.72;99230.78;5098508;28;20048;-55
2021/04/08 01:02:09;;;;;;;18.80;11.38;;;;;;;1.08;79.94;99228.19;5098459;28;20097;-55
2021/04/08 01:04:36;;;;;;;16.10;9.80;;;;;;;1.03;80.30;99241.94;5098396;28;20101;-55
2021/04/08 01:07:02;;;;;;;19.45;11.45;;;;;;;1.06;80.45;99229.03;5099157;28;20043;-55
2021/04/08 01:09:28;;;;;;;21.67;11.55;;;;;;;1.12;80.16;99237.66;5098874;28;20060;-54
2021/04/08 01:11:54;;;;;;;18.55;11.85;;;;;;;1.05;80.46;99237.66;5098615;28;20036;-55
2021/04/08 01:14:20;;;;;;;19.33;11.52;;;;;;;1.09;80.52;99237.66;5098779;28;20362;-55
2021/04/08 01:17:06;;;;;;;21.77;12.50;;;;;;;1.07;80.56;99236.81;5097884;28;20430;-55
2021/04/08 01:20:08;;;;;;;21.05;12.25;;;;;;;1.20;80.03;99237.69;5098135;28;20048;-55
2021/04/08 01:23:01;;;;;;;18.55;12.38;;;;;;;1.19;80.36;99240.28;5098116;28;20109;-54
2021/04/08 01:25:39;;;;;;;18.60;11.77;;;;;;;1.16;80.55;99231.66;5098021;28;20051;-55
2021/04/08 01:28:20;;;;;;;15.55;10.13;;;;;;;1.18;80.99;99244.56;5098808;28;20048;-55
2021/04/08 01:30:49;;;;;;;16.55;11.20;;;;;;;1.24;81.03;99241.16;5097943;28;20189;-54
2021/04/08 01:33:30;;;;;;;18.50;10.90;;;;;;;1.27;81.00;99239.44;5098481;28;20043;-55
2021/04/08 01:35:57;;;;;;;17.90;12.02;;;;;;;1.31;80.99;99240.31;5097595;28;20438;-54
2021/04/08 01:38:26;;;;;;;18.90;12.23;;;;;;;1.45;80.49;99245.50;5097784;28;20105;-55
2021/04/08 01:40:51;;;;;;;20.63;11.80;;;;;;;1.43;80.47;99236.91;5098296;28;20044;-55
2021/04/08 01:43:30;;;;;;;18.00;11.88;;;;;;;1.46;80.60;99242.06;5098169;28;20148;-55
2021/04/08 01:45:56;;;;;;;17.75;11.20;;;;;;;1.44;81.00;99242.09;5097731;28;20098;-54
2021/04/08 01:48:22;;;;;;;18.55;12.73;;;;;;;1.49;80.86;99245.50;5080729;28;20044;-54
2021/04/08 01:50:48;;;;;;;18.00;11.38;;;;;;;1.50;80.92;99246.41;5097505;28;20457;-54
2021/04/08 01:53:15;;;;;;;20.92;13.00;;;;;;;1.55;80.72;99242.09;5097496;28;20060;-54
2021/04/08 01:55:41;;;;;;;17.60;11.70;;;;;;;1.51;81.10;99254.13;5098076;28;20119;-55
2021/04/08 01:58:07;;;;;;;16.52;11.57;;;;;;;1.52;81.22;99249.84;5080670;28;20048;-55
2021/04/08 02:00:33;;;;;;;14.50;10.88;;;;;;;1.59;80.96;99252.44;5080554;28;20442;-55
2021/04/08 02:02:58;;;;;;;14.20;11.48;;;;;;;1.63;80.72;99249.00;5097274;28;20052;-55
2021/04/08 02:05:25;;;;;;;16.30;11.70;;;;;;;1.66;80.91;99257.59;5080152;28;20046;-55
2021/04/08 02:07:52;;;;;;;19.70;12.25;;;;;;;1.71;80.63;99258.47;5080122;28;20065;-55
2021/04/08 02:10:17;;;;;;;17.48;12.52;;;;;;;1.71;80.65;99259.34;5063227;28;20056;-55
2021/04/08 02:12:45;;;;;;;16.35;12.10;;;;;;;1.73;80.57;99252.47;5063510;28;20115;-55
2021/04/08 02:15:11;;;;;;;16.80;12.15;;;;;;;1.78;80.50;99255.91;5097141;28;20052;-54
2021/04/08 02:17:37;;;;;;;19.50;13.23;;;;;;;1.76;80.44;99257.66;5080101;28;20385;-55
2021/04/08 02:20:09;;;;;;;17.27;12.43;;;;;;;1.76;80.52;99252.47;5079813;28;20052;-55
2021/04/08 02:22:39;;;;;;;15.88;11.45;;;;;;;1.78;80.76;99266.22;5080071;28;20036;-55
2021/04/08 02:25:07;;;;;;;17.02;10.95;;;;;;;1.79;80.84;99259.38;5080020;28;20052;-55
2021/04/08 02:27:36;;;;;;;15.93;11.32;;;;;;;1.78;80.99;99257.63;5098024;28;20073;-55
2021/04/08 02:30:02;;;;;;;17.55;13.15;;;;;;;1.85;80.80;99262.81;5080100;28;20052;-55
2021/04/08 02:32:27;;;;;;;18.05;12.00;;;;;;;1.81;81.06;99270.53;5097215;28;20044;-54
2021/04/08 02:34:53;;;;;;;16.85;12.00;;;;;;;1.89;80.74;99268.84;5079516;28;20105;-55
2021/04/08 02:37:19;;;;;;;17.15;11.77;;;;;;;1.83;80.85;99269.69;5096601;28;20458;-54
2021/04/08 02:39:44;;;;;;;17.98;11.57;;;;;;;1.87;80.94;99267.97;5096344;28;20105;-54
2021/04/08 02:42:10;;;;;;;17.02;12.43;;;;;;;1.89;80.69;99274.03;5096535;28;20055;-54
2021/04/08 02:44:36;;;;;;;18.85;12.75;;;;;;;1.88;80.69;99280.03;5079276;28;20059;-54
2021/04/08 02:47:02;;;;;;;16.58;12.95;;;;;;;1.90;80.89;99290.38;5096943;28;20051;-54
2021/04/08 02:49:28;;;;;;;19.50;13.77;;;;;;;1.81;81.07;99284.31;5096963;28;20044;-54
2021/04/08 02:52:00;;;;;;;17.80;12.30;;;;;;;1.84;81.33;99289.50;5062574;28;20052;-55
2021/04/08 02:54:50;;;;;;;17.35;13.27;;;;;;;1.85;81.15;99286.06;5096365;28;20135;-54
2021/04/08 02:57:36;;;;;;;18.23;12.82;;;;;;;1.85;81.12;99303.25;5095915;28;20074;-54
2021/04/08 03:00:08;;;;;;;21.13;14.75;;;;;;;1.95;80.91;99302.44;5096259;28;20052;-54
2021/04/08 03:02:35;;;;;;;17.70;14.02;;;;;;;1.92;81.06;99305.03;5096790;28;20070;-55
2021/04/08 03:05:01;;;;;;;17.02;12.25;;;;;;;1.85;81.23;99301.56;5096222;28;20062;-54
2021/04/08 03:07:30;;;;;;;16.50;12.73;;;;;;;1.91;81.10;99302.41;5096037;28;20331;-54
2021/04/08 03:09:55;;;;;;;17.00;12.65;;;;;;;1.91;81.15;99299.84;5079633;28;20113;-54
2021/04/08 03:12:21;;;;;;;17.63;13.65;;;;;;;1.90;81.20;99298.13;5078913;28;20040;-55
2021/04/08 03:14:53;;;;;;;19.48;12.70;;;;;;;1.90;81.38;99311.91;5095748;28;20341;-54
2021/04/08 03:17:23;;;;;;;21.60;14.50;;;;;;;1.91;81.39;99305.84;5096841;28;20052;-54
2021/04/08 03:19:49;;;;;;;17.40;13.75;;;;;;;1.93;81.16;99304.16;5097286;28;20459;-55
2021/04/08 03:22:14;;;;;;;16.02;11.88;;;;;;;1.88;81.44;99303.28;5095518;28;20446;-55
2021/04/08 03:24:41;;;;;;;14.82;11.85;;;;;;;1.94;81.29;99308.44;5062057;28;20058;-55
2021/04/08 03:27:07;;;;;;;17.70;12.38;;;;;;;1.96;81.41;99308.47;5096518;28;20048;-55
2021/04/08 03:29:32;;;;;;;14.05;10.07;;;;;;;1.98;81.23;99306.72;5079027;28;20320;-54
2021/04/08 03:31:58;;;;;;;15.18;11.30;;;;;;;2.03;80.96;99312.78;5078954;28;20044;-55
2021/04/08 03:34:24;;;;;;;16.15;10.93;;;;;;;2.09;80.72;99317.97;5095672;28;20354;-55
2021/04/08 03:36:50;;;;;;;15.13;10.88;;;;;;;2.08;80.49;99316.22;5095632;28;20127;-55
2021/04/08 03:39:16;;;;;;;19.20;12.70;;;;;;;2.05;80.74;99321.41;5096489;28;20048;-55
2021/04/08 03:41:42;;;;;;;19.80;12.98;;;;;;;2.05;80.78;99324.84;5095589;28;20048;-55
2021/04/08 03:44:12;;;;;;;20.20;13.18;;;;;;;2.10;80.47;99325.69;5096170;28;20040;-55
2021/04/08 03:46:38;;;;;;;22.75;13.90;;;;;;;2.08;80.53;99329.13;5078779;28;20109;-55
2021/04/08 03:49:05;;;;;;;19.00;13.18;;;;;;;2.11;80.50;99329.13;5096416;28;20048;-55
2021/04/08 03:51:30;;;;;;;18.63;13.32;;;;;;;2.05;80.70;99326.56;5095475;28;20121;-54
2021/04/08 03:53:56;;;;;;;19.30;13.75;;;;;;;2.02;80.87;99327.41;5096362;28;20439;-54
2021/04/08 03:56:22;;;;;;;16.60;11.77;;;;;;;1.96;81.09;99329.13;5079242;28;20458;-54
2021/04/08 03:58:48;;;;;;;18.27;13.63;;;;;;;2.03;81.12;99333.44;5078335;28;20115;-54
2021/04/08 04:01:17;;;;;;;16.80;12.40;;;;;;;2.11;80.70;99339.47;5078684;28;20051;-54
2021/04/08 04:03:42;;;;;;;16.85;11.82;;;;;;;2.09;80.81;99339.47;5095156;28;20040;-54
2021/04/08 04:06:09;;;;;;;14.63;11.32;;;;;;;2.08;80.81;99350.69;5078583;28;20052;-55
2021/04/08 04:08:35;;;;;;;19.63;13.65;;;;;;;2.07;80.73;99353.25;5097642;28;20052;-54
2021/04/08 04:11:01;;;;;;;17.25;11.15;;;;;;;2.03;81.12;99351.53;5100011;28;20056;-55
2021/04/08 04:13:27;;;;;;;9.98;8.02;;;;;;;2.01;81.16;99356.69;5099139;28;20064;-54
2021/04/08 04:15:52;;;;;;;6.97;5.82;;;;;;;2.06;81.21;99364.47;5099066;28;20071;-55
2021/04/08 04:18:19;;;;;;;7.05;5.75;;;;;;;2.03;81.37;99365.31;5100368;28;20044;-54
2021/04/08 04:20:45;;;;;;;7.68;6.22;;;;;;;1.93;81.79;99375.63;5100160;28;20400;-55
2021/04/08 04:23:11;;;;;;;7.18;5.03;;;;;;;1.94;81.90;99370.44;5099859;28;20040;-54
2021/04/08 04:25:37;;;;;;;4.80;3.50;;;;;;;1.99;81.49;99379.09;5082297;28;20036;-54
2021/04/08 04:28:03;;;;;;;2.65;2.25;;;;;;;2.05;81.15;99388.56;5099953;28;20112;-54
2021/04/08 04:30:29;;;;;;;3.55;3.10;;;;;;;2.00;81.48;99392.84;5099720;28;20044;-54
2021/04/08 04:32:55;;;;;;;3.17;2.65;;;;;;;1.95;81.78;99397.13;5099889;28;20058;-54
2021/04/08 04:35:21;;;;;;;3.60;2.72;;;;;;;1.95;81.32;99389.38;5099637;28;20036;-54
2021/04/08 04:37:47;;;;;;;3.47;3.10;;;;;;;2.01;80.75;99400.59;5099551;28;20044;-54
2021/04/08 04:40:13;;;;;;;5.55;3.40;;;;;;;2.03;80.41;99404.06;5099540;28;20044;-55
2021/04/08 04:42:38;;;;;;;4.40;2.70;;;;;;;2.03;80.41;99393.72;5099766;28;20052;-54
2021/04/08 04:45:05;;;;;;;4.35;2.80;;;;;;;2.14;79.51;99406.66;5100211;28;20058;-54
2021/04/08 04:47:31;;;;;;;8.05;2.38;;;;;;;2.08;79.12;99409.22;5099560;28;20043;-55
2021/04/08 04:49:57;;;;;;;5.65;3.70;;;;;;;2.05;79.59;99412.69;5099352;28;20069;-54
2021/04/08 04:52:23;;;;;;;10.25;3.28;;;;;;;2.06;79.41;99414.41;5099534;28;20085;-54
2021/04/08 04:54:49;;;;;;;9.63;3.35;;;;;;;2.16;78.43;99412.72;5098414;28;20123;-54
2021/04/08 04:57:14;;;;;;;6.40;3.30;;;;;;;2.10;78.73;99416.13;5099186;28;20040;-54
2021/04/08 04:59:40;;;;;;;10.90;3.53;;;;;;;2.18;78.04;99428.19;5099439;28;20046;-55
2021/04/08 05:02:06;;;;;;;3.30;2.30;;;;;;;2.07;78.25;99431.63;5099106;28;20036;-55
2021/04/08 05:04:32;;;;;;;10.63;3.17;;;;;;;2.06;78.79;99436.78;5099327;28;20055;-54
2021/04/08 05:06:57;;;;;;;9.27;2.83;;;;;;;2.04;79.36;99430.75;5098925;28;20431;-54
2021/04/08 05:09:23;;;;;;;9.55;3.13;;;;;;;2.36;77.69;99432.56;5098791;28;20059;-54
2021/04/08 05:11:49;;;;;;;10.73;3.85;;;;;;;2.27;77.71;99436.84;5099358;28;20135;-54
2021/04/08 05:14:15;;;;;;;8.43;2.15;;;;;;;2.18;77.89;99441.13;5098266;28;20414;-54
2021/04/08 05:16:40;;;;;;;14.65;4.07;;;;;;;2.20;77.53;99437.69;5099269;28;20066;-54
2021/04/08 05:19:06;;;;;;;7.93;3.10;;;;;;;2.30;77.66;99444.59;5080939;28;20060;-54
2021/04/08 05:21:32;;;;;;;11.13;4.03;;;;;;;2.31;77.68;99441.19;5098664;28;20458;-54
2021/04/08 05:23:58;;;;;;;18.92;4.30;;;;;;;2.42;76.92;99448.94;5098030;28;20052;-54
2021/04/08 05:26:23;;;;;;;9.88;4.25;;;;;;;2.49;76.44;99453.25;5098801;28;20075;-54
2021/04/08 05:28:49;;;;;;;11.10;4.05;;;;;;;2.45;76.51;99451.53;5081070;28;20062;-54
2021/04/08 05:31:15;;;;;;;12.15;3.22;;;;;;;2.54;76.65;99443.81;5098575;28;20050;-54
2021/04/08 05:33:41;;;;;;;16.30;5.93;;;;;;;2.72;75.82;99460.19;5097682;28;20442;-54
2021/04/08 05:36:06;;;;;;;19.52;6.88;;;;;;;2.74;75.95;99461.06;5099535;28;20044;-54
2021/04/08 05:38:32;;;;;;;12.38;4.18;;;;;;;2.72;76.02;99455.88;5098657;28;20117;-53
2021/04/08 05:40:58;;;;;;;9.15;4.65;;;;;;;2.86;75.83;99462.78;5098639;28;20430;-53
2021/04/08 05:43:24;;;;;;;12.88;4.18;;;;;;;3.12;74.96;99453.31;5098882;28;20047;-54
2021/04/08 05:45:50;;;;;;;6.68;2.63;;;;;;;3.21;73.88;99467.97;5098215;28;20108;-54
2021/04/08 05:48:16;;;;;;;17.17;3.00;;;;;;;3.13;73.77;99465.41;5098432;28;20044;-54
2021/04/08 05:50:41;;;;;;;8.10;3.00;;;;;;;3.03;74.40;99463.69;5098117;28;20058;-53
2021/04/08 05:53:07;;;;;;;11.88;3.13;;;;;;;3.19;74.16;99464.53;5098733;28;20036;-54
2021/04/08 05:55:34;;;;;;;8.30;2.75;;;;;;;3.31;73.55;99479.19;5097500;28;20094;-53
2021/04/08 05:57:59;;;;;;;6.50;2.35;;;;;;;3.29;73.77;99484.38;5098325;28;20055;-54
2021/04/08 06:00:25;;;;;;;8.30;2.97;;;;;;;3.34;73.23;99481.75;5098262;28;20052;-53
2021/04/08 06:02:51;;;;;;;14.32;3.20;;;;;;;3.34;73.53;99489.53;5098186;28;20414;-53
2021/04/08 06:05:17;;;;;;;9.35;3.17;;;;;;;3.35;73.31;99497.31;5080112;28;20048;-53
2021/04/08 06:07:43;;;;;;;8.57;2.58;;;;;;;3.41;72.71;99499.00;5096787;28;20442;-53
2021/04/08 06:10:09;;;;;;;11.07;2.38;;;;;;;3.37;72.99;99500.75;5097911;28;20121;-53
2021/04/08 06:12:39;;;;;;;8.35;1.90;;;;;;;3.46;72.81;99500.75;5097094;28;20052;-53
2021/04/08 06:15:06;;;;;;;11.70;3.20;;;;;;;3.54;72.02;99500.72;5097937;28;20419;-53
2021/04/08 06:17:32;;;;;;;6.38;2.40;;;;;;;3.65;71.92;99509.34;5096719;28;20413;-53
2021/04/08 06:19:57;;;;;;;12.20;3.47;;;;;;;3.77;71.14;99511.06;5097494;28;20044;-53
2021/04/08 06:22:23;;;;;;;11.38;4.30;;;;;;;3.61;71.67;99524.91;5097523;28;20101;-53
2021/04/08 06:24:49;;;;;;;8.57;2.40;;;;;;;3.60;71.65;99526.63;5096806;28;20052;-54
2021/04/08 06:27:15;;;;;;;7.43;2.30;;;;;;;3.70;71.09;99527.47;5096722;28;20059;-53
2021/04/08 06:29:41;;;;;;;10.52;2.83;;;;;;;3.65;71.01;99527.47;5096311;28;20036;-53
2021/04/08 06:32:07;;;;;;;10.23;3.17;;;;;;;3.59;71.71;99530.06;5096715;28;20044;-54
2021/04/08 06:34:33;;;;;;;6.65;2.58;;;;;;;3.73;70.62;99536.09;5097486;28;20044;-54
2021/04/08 06:36:58;;;;;;;7.03;2.05;;;;;;;3.78;70.58;99543.00;5097480;28;20066;-54
2021/04/08 06:39:24;;;;;;;6.97;2.08;;;;;;;3.90;69.93;99546.44;5097148;28;20346;-54
2021/04/08 06:41:50;;;;;;;13.60;2.97;;;;;;;3.57;70.94;99549.94;5097380;28;20048;-54
2021/04/08 06:44:17;;;;;;;8.98;2.83;;;;;;;3.73;70.87;99543.84;5096423;28;20335;-54
2021/04/08 06:46:43;;;;;;;14.43;3.53;;;;;;;3.81;70.63;99553.38;5096331;28;20060;-54
2021/04/08 06:49:18;;;;;;;14.63;5.78;;;;;;;3.78;70.96;99550.78;5096364;28;20048;-53
2021/04/08 06:51:44;;;;;;;14.25;4.25;;;;;;;3.88;70.69;99555.09;5096375;28;20048;-53
2021/04/08 06:54:10;;;;;;;9.05;3.80;;;;;;;3.79;71.30;99558.53;5097077;28;20457;-53
2021/04/08 06:56:36;;;;;;;14.23;3.28;;;;;;;3.80;71.50;99559.41;5097415;28;20101;-53
2021/04/08 06:59:01;;;;;;;12.52;2.70;;;;;;;3.94;71.05;99565.44;5079059;28;20048;-53
2021/04/08 07:01:27;;;;;;;7.15;2.60;;;;;;;4.02;71.28;99573.19;5095988;28;20036;-53
2021/04/08 07:03:54;;;;;;;11.75;3.33;;;;;;;4.08;70.91;99578.34;5096225;28;20063;-54
2021/04/08 07:06:20;;;;;;;16.70;4.57;;;;;;;4.39;70.57;99581.72;5095714;28;20063;-53
2021/04/08 07:08:46;;;;;;;16.40;3.03;;;;;;;4.59;70.16;99581.66;5095641;28;20044;-54
2021/04/08 07:11:11;;;;;;;25.80;8.20;;;;;;;4.88;70.46;99591.88;5095543;28;20052;-54
2021/04/08 07:13:37;;;;;;;30.95;11.65;;;;;;;5.24;68.54;99600.31;5097081;28;20299;-54
2021/04/08 07:16:03;;;;;;;15.15;3.55;;;;;;;5.25;67.81;99584.72;5095689;28;20123;-53
2021/04/08 07:18:29;;;;;;;50.58;27.02;;;;;;;5.47;66.77;99598.41;5096682;28;20060;-53
2021/04/08 07:20:56;;;;;;;135.27;56.67;;;;;;;5.73;65.84;99602.53;5096828;28;20145;-53
2021/04/08 07:23:21;;;;;;;136.35;64.78;;;;;;;5.85;64.73;99611.09;5097396;28;20048;-54
2021/04/08 07:25:59;;;;;;;18.50;11.70;;;;;;;5.70;65.16;99607.75;5096367;28;20039;-54
2021/04/08 07:28:32;;;;;;;26.88;17.02;;;;;;;5.69;65.30;99613.81;5096503;28;20048;-54
2021/04/08 07:31:27;;;;;;;14.45;5.20;;;;;;;5.59;63.72;99623.44;5096582;28;20063;-54
2021/04/08 07:33:55;;;;;;;11.48;4.35;;;;;;;5.44;64.92;99629.59;5096571;28;20104;-54
2021/04/08 07:36:34;;;;;;;14.55;3.53;;;;;;;5.82;64.50;99621.50;5096403;28;20056;-53
2021/04/08 07:39:07;;;;;;;7.15;3.15;;;;;;;6.15;63.94;99627.31;5096086;28;20044;-54
2021/04/08 07:41:36;;;;;;;;;;;;;;;6.24;63.50;99637.63;5095752;28;20055;-54
2021/04/08 07:44:06;;;;;;;9.15;2.80;;;;;;;6.65;62.73;99645.84;5095783;28;20007;-54
2021/04/08 07:46:42;;;;;;;11.07;3.22;;;;;;;6.74;61.84;99635.31;5095541;28;20032;-55
2021/04/08 07:49:30;;;;;;;9.90;3.80;;;;;;;7.08;61.30;99647.91;5095556;28;20145;-55
2021/04/08 07:51:56;;;;;;;9.63;3.20;;;;;;;7.52;60.42;99651.63;5096346;28;20052;-55
2021/04/08 07:54:22;;;;;;;8.75;3.90;;;;;;;7.62;60.73;99655.81;5096269;28;20043;-55
2021/04/08 07:56:48;;;;;;;11.63;6.15;;;;;;;7.56;59.71;99658.53;5095980;28;20063;-55
2021/04/08 07:59:17;;;;;;;13.50;4.28;;;;;;;7.53;59.19;99645.53;5096011;28;20040;-55
2021/04/08 08:01:44;;;;;;;5.97;2.67;;;;;;;7.52;58.51;99662.06;5096208;28;20052;-55
2021/04/08 08:04:23;;;;;;;10.98;3.20;;;;;;;7.45;58.16;99666.50;5095888;28;20059;-55
2021/04/08 08:06:49;;;;;;;11.93;4.03;;;;;;;7.45;59.98;99666.50;5095763;28;20145;-55
2021/04/08 08:09:26;;;;;;;10.82;3.58;;;;;;;7.81;58.88;99677.25;5095129;28;20044;-55
2021/04/08 08:11:54;;;;;;;7.53;3.05;;;;;;;7.91;59.76;99668.41;5095180;28;20119;-56
2021/04/08 08:14:32;;;;;;;7.20;2.78;;;;;;;8.08;58.68;99678.53;5078674;28;20068;-56
2021/04/08 08:17:09;;;;;;;9.05;3.08;;;;;;;8.26;56.97;99687.81;5095597;28;20115;-56
2021/04/08 08:19:40;;;;;;;6.43;2.78;;;;;;;8.14;57.28;99699.31;5095857;28;20044;-56
2021/04/08 08:22:07;;;;;;;9.98;3.67;;;;;;;8.26;57.29;99700.88;5094796;28;20389;-56
2021/04/08 08:24:33;;;;;;;10.07;3.88;;;;;;;8.24;57.87;99713.06;5095734;28;20037;-56
2021/04/08 08:26:59;;;;;;;9.40;3.08;;;;;;;8.20;57.75;99704.44;5095647;28;20048;-56
2021/04/08 08:29:29;;;;;;;8.77;2.83;;;;;;;8.38;57.02;99706.75;5095702;28;20065;-56
2021/04/08 08:31:59;;;;;;;8.85;3.10;;;;;;;8.51;57.53;99709.13;5095159;28;20040;-56
2021/04/08 08:34:26;;;;;;;10.82;3.83;;;;;;;8.47;56.24;99703.09;5095887;28;20068;-56
2021/04/08 08:36:58;;;;;;;11.18;3.80;;;;;;;8.50;57.63;99708.28;5077762;28;20461;-56
2021/04/08 08:39:32;;;;;;;7.70;3.03;;;;;;;8.30;59.03;99703.38;5095680;28;20347;-57
2021/04/08 08:41:59;;;;;;;6.78;3.13;;;;;;;8.31;57.25;99712.91;5095908;28;20082;-56
2021/04/08 08:44:25;;;;;;;10.68;2.78;;;;;;;8.11;57.43;99717.63;5095595;28;20044;-56
2021/04/08 08:47:10;;;;;;;6.88;3.17;;;;;;;7.93;58.04;99722.25;5095441;28;20097;-56
2021/04/08 08:49:42;;;;;;;11.40;3.15;;;;;;;7.73;57.79;99724.28;5095743;28;20052;-56
2021/04/08 08:52:09;;;;;;;11.25;3.45;;;;;;;7.36;59.42;99730.03;5095767;28;20075;-56
2021/04/08 08:54:35;;;;;;;11.30;3.50;;;;;;;7.05;57.77;99736.50;5097774;28;20052;-56
2021/04/08 08:57:01;;;;;;;13.75;5.88;;;;;;;6.83;59.32;99728.09;5098555;28;20048;-56
2021/04/08 08:59:27;;;;;;;10.10;3.28;;;;;;;6.49;59.35;99746.63;5099136;28;20040;-56
2021/04/08 09:01:53;;;;;;;10.20;2.78;;;;;;;6.44;59.69;99757.09;5099079;28;20075;-55
2021/04/08 09:04:19;;;;;;;9.95;3.42;;;;;;;6.28;60.81;99758.97;5098121;28;20131;-56
2021/04/08 09:06:44;;;;;;;11.85;3.42;;;;;;;6.33;59.66;99761.50;5098010;28;20102;-55
2021/04/08 09:09:12;;;;;;;6.80;2.15;;;;;;;6.18;59.82;99775.53;5098960;28;20054;-54
2021/04/08 09:11:40;;;;;;;9.30;3.10;;;;;;;5.94;60.06;99768.75;5097885;28;20079;-55
2021/04/08 09:14:06;;;;;;;7.53;2.33;;;;;;;5.98;61.06;99773.06;5098800;28;20335;-55
2021/04/08 09:16:32;;;;;;;8.93;2.30;;;;;;;5.85;61.46;99782.66;5080956;28;20086;-55
2021/04/08 09:19:05;;;;;;;6.30;2.13;;;;;;;5.84;61.90;99780.03;5098067;28;20044;-55
2021/04/08 09:21:47;;;;;;;;;;;;;;;5.80;61.78;99786.16;5099166;28;20354;-55
2021/04/08 09:24:14;;;;;;;7.50;2.13;;;;;;;5.70;62.38;99764.53;5098903;28;19973;-55
2021/04/08 09:26:41;;;;;;;14.95;2.40;;;;;;;5.61;62.71;99791.44;5098502;28;20062;-55
2021/04/08 09:29:08;;;;;;;6.88;2.58;;;;;;;5.60;62.95;99797.50;5097846;28;20054;-55
2021/04/08 09:31:34;;;;;;;11.25;3.55;;;;;;;5.75;63.67;99803.50;5097920;28;20166;-55
2021/04/08 09:34:01;;;;;;;9.70;2.28;;;;;;;5.78;63.71;99793.06;5097573;28;20078;-55
2021/04/08 09:36:37;;;;;;;7.00;2.30;;;;;;;6.09;61.99;99809.38;5098332;28;20047;-55
2021/04/08 09:39:02;;;;;;;8.98;2.72;;;;;;;6.10;62.81;99811.09;5098294;28;20040;-55
2021/04/08 09:41:50;;;;;;;7.10;4.18;;;;;;;6.16;62.92;99820.63;5080897;28;20055;-55
2021/04/08 09:44:17;;;;;;;9.40;2.40;;;;;;;6.15;62.61;99816.28;5097689;28;20052;-55
2021/04/08 09:46:54;;;;;;;7.20;2.80;;;;;;;6.11;62.80;99825.84;5080816;28;20346;-55
2021/04/08 09:49:39;;;;;;;8.85;2.90;;;;;;;5.83;63.27;99819.91;5098764;28;20044;-55
2021/04/08 09:52:05;;;;;;;9.65;2.60;;;;;;;5.84;64.18;99827.69;5098910;28;20071;-55
2021/04/08 09:54:47;;;;;;;6.25;1.95;;;;;;;5.85;63.62;99837.25;5097171;28;20036;-55
2021/04/08 09:57:13;;;;;;;20.55;8.05;;;;;;;5.52;64.77;99842.56;5098041;28;20044;-55
2021/04/08 09:59:57;;;;;;;18.75;6.68;;;;;;;5.72;62.97;99837.28;5080309;28;20350;-55
2021/04/08 10:02:24;;;;;;;30.50;10.88;;;;;;;5.91;62.21;99838.91;5098169;28;20511;-54
2021/04/08 10:05:09;;;;;;;26.90;12.05;;;;;;;5.75;63.66;99847.66;5097353;28;20056;-55
2021/04/08 10:07:54;;;;;;;5.63;3.08;;;;;;;6.07;61.79;99850.13;5097041;28;20400;-55
2021/04/08 10:10:21;;;;;;;7.82;2.72;;;;;;;5.97;62.57;99862.31;5097554;28;20488;-55
2021/04/08 10:12:47;;;;;;;9.50;2.33;;;;;;;5.91;61.74;99864.91;5098266;28;20036;-54
2021/04/08 10:15:17;;;;;;;4.95;2.10;;;;;;;5.70;61.99;99858.09;5097807;28;20047;-55
2021/04/08 10:17:43;;;;;;;5.55;3.30;;;;;;;5.51;62.62;99865.09;5097470;28;20108;-58
2021/04/08 10:20:09;;;;;;;5.88;2.83;;;;;;;5.50;64.01;99872.91;5097771;28;20060;-53
2021/04/08 10:22:40;;;;;;;7.55;2.13;;;;;;;5.26;65.33;99876.44;5097125;28;20048;-55
2021/04/08 10:25:07;;;;;;;9.55;4.68;;;;;;;5.33;65.72;99881.63;5097695;28;20101;-54
2021/04/08 10:27:32;;;;;;;27.15;10.32;;;;;;;5.23;66.05;99881.63;5095644;28;20370;-55
2021/04/08 10:29:58;;;;;;;18.17;6.38;;;;;;;5.28;65.08;99890.28;5077787;28;20040;-54
2021/04/08 10:32:38;;;;;;;20.00;7.40;;;;;;;5.26;66.61;99887.69;5094481;28;20702;-54
2021/04/08 10:35:16;;;;;;;11.75;5.72;;;;;;;5.39;67.03;99896.31;5094534;28;20378;-54
2021/04/08 10:37:42;;;;;;;11.50;5.05;;;;;;;5.50;67.69;99893.69;5095534;28;20044;-54
2021/04/08 10:40:08;;;;;;;47.90;21.77;;;;;;;5.91;65.37;99903.06;5095022;28;20074;-54
2021/04/08 10:42:34;;;;;;;20.98;9.88;;;;;;;5.99;64.79;99897.00;5096256;28;20144;-55
2021/04/08 10:45:00;;;;;;;19.30;9.15;;;;;;;6.03;65.60;99901.28;5097037;28;20437;-55
2021/04/08 10:47:26;;;;;;;16.92;7.72;;;;;;;6.13;65.33;99909.06;5096086;28;20438;-55
2021/04/08 10:49:52;;;;;;;31.67;17.25;;;;;;;6.13;64.43;99914.25;5097517;28;20044;-55
2021/04/08 10:52:21;;;;;;;23.77;14.23;;;;;;;5.97;65.57;99909.13;5097172;28;20062;-54
2021/04/08 10:54:52;;;;;;;19.42;10.68;;;;;;;6.01;66.20;99923.88;5096801;28;20040;-54
2021/04/08 10:57:17;;;;;;;17.65;10.80;;;;;;;5.88;66.69;99913.47;5097069;28;20044;-54
2021/04/08 10:59:44;;;;;;;12.00;5.32;;;;;;;6.16;67.23;99916.84;5096166;28;20048;-54
2021/04/08 11:02:32;;;;;;;10.80;6.05;;;;;;;6.41;65.98;99914.97;5096126;28;20059;-54
2021/04/08 11:05:05;;;;;;;13.75;7.35;;;;;;;6.44;65.42;99920.16;5096955;28;20101;-54
2021/04/08 11:07:38;;;;;;;12.07;6.97;;;;;;;6.44;64.80;99920.16;5097160;28;20308;-54
2021/04/08 11:10:09;;;;;;;10.13;5.63;;;;;;;6.63;64.64;99918.25;5095926;28;20056;-55
2021/04/08 11:12:35;;;;;;;8.70;4.30;;;;;;;6.72;64.15;99916.47;5096903;28;20048;-55
2021/04/08 11:15:01;;;;;;;16.80;10.10;;;;;;;6.91;61.85;99914.56;5096604;28;20040;-55
2021/04/08 11:17:27;;;;;;;35.85;23.63;;;;;;;6.83;61.17;99919.00;5095255;28;20044;-55
2021/04/08 11:19:54;;;;;;;53.15;37.30;;;;;;;6.73;60.50;99935.56;5078834;28;20382;-55
2021/04/08 11:22:21;;;;;;;19.67;16.05;;;;;;;6.49;62.12;99932.25;5095427;28;20052;-55
2021/04/08 11:24:48;;;;;;;15.48;8.15;;;;;;;6.48;61.35;99927.06;5079128;28;20059;-55
2021/04/08 11:27:14;;;;;;;12.38;6.60;;;;;;;6.43;61.40;99940.06;5096337;28;20450;-55
2021/04/08 11:29:40;;;;;;;9.35;5.30;;;;;;;6.45;61.74;99940.94;5096370;28;20101;-55
2021/04/08 11:32:10;;;;;;;13.18;6.78;;;;;;;6.40;62.78;99942.72;5095658;28;20059;-55
2021/04/08 11:34:43;;;;;;;13.40;6.18;;;;;;;6.61;62.21;99938.25;5096863;28;20094;-56
2021/04/08 11:37:09;;;;;;;;;;;;;;;6.42;61.95;99940.09;5095833;28;20047;-55
2021/04/08 11:39:35;;;;;;;9.45;6.25;;;;;;;6.49;61.57;99944.38;5095729;28;19924;-44